sensor_id;sensor_type;location;lat;lon;timestamp;pressure;altitude;pressure_sealevel;temperature;humidity
20987;BME280;10652;50.306;8.570;2023-03-25T00:01:39;96971.00;;;7.20;87.48
20987;BME280;10652;50.306;8.570;2023-03-25T00:05:42;96957.03;;;7.21;92.13
20987;BME280;10652;50.306;8.570;2023-03-25T00:09:44;96957.41;;;7.30;89.53
20987;BME280;10652;50.306;8.570;2023-03-25T00:13:46;96950.56;;;7.11;87.90
20987;BME280;10652;50.306;8.570;2023-03-25T00:17:49;96952.28;;;6.95;88.14
20987;BME280;10652;50.306;8.570;2023-03-25T00:21:51;96953.78;;;6.81;88.74
20987;BME280;10652;50.306;8.570;2023-03-25T00:25:53;96957.63;;;6.74;89.49
20987;BME280;10652;50.306;8.570;2023-03-25T00:30:00;96957.69;;;6.73;89.33
20987;BME280;10652;50.306;8.570;2023-03-25T00:34:03;96959.44;;;6.72;89.24
20987;BME280;10652;50.306;8.570;2023-03-25T00:38:05;96957.78;;;6.71;88.45
20987;BME280;10652;50.306;8.570;2023-03-25T00:42:08;96958.06;;;6.65;88.18
20987;BME280;10652;50.306;8.570;2023-03-25T00:46:12;96972.94;;;6.63;88.16
20987;BME280;10652;50.306;8.570;2023-03-25T00:50:14;96970.50;;;6.60;87.81
20987;BME280;10652;50.306;8.570;2023-03-25T00:54:16;96988.91;;;6.57;87.49
20987;BME280;10652;50.306;8.570;2023-03-25T00:58:18;96974.34;;;6.53;88.16
20987;BME280;10652;50.306;8.570;2023-03-25T01:02:22;96974.69;;;6.45;88.19
20987;BME280;10652;50.306;8.570;2023-03-25T01:06:27;96974.03;;;6.40;88.82
20987;BME280;10652;50.306;8.570;2023-03-25T01:10:30;96981.19;;;6.37;89.29
20987;BME280;10652;50.306;8.570;2023-03-25T01:14:32;96972.72;;;6.32;89.04
20987;BME280;10652;50.306;8.570;2023-03-25T01:18:35;96981.50;;;6.31;89.66
20987;BME280;10652;50.306;8.570;2023-03-25T01:22:38;96971.25;;;6.26;89.90
20987;BME280;10652;50.306;8.570;2023-03-25T01:26:41;96953.22;;;6.22;90.12
20987;BME280;10652;50.306;8.570;2023-03-25T01:30:46;96966.31;;;6.20;90.62
20987;BME280;10652;50.306;8.570;2023-03-25T01:34:48;96966.38;;;6.19;90.98
20987;BME280;10652;50.306;8.570;2023-03-25T01:38:51;96955.03;;;6.20;91.77
20987;BME280;10652;50.306;8.570;2023-03-25T01:42:53;96960.72;;;6.28;92.04
20987;BME280;10652;50.306;8.570;2023-03-25T01:46:58;96952.66;;;6.34;92.73
20987;BME280;10652;50.306;8.570;2023-03-25T01:51:13;96949.81;;;6.38;92.87
20987;BME280;10652;50.306;8.570;2023-03-25T01:55:17;96950.28;;;6.46;92.97
20987;BME280;10652;50.306;8.570;2023-03-25T01:59:24;96933.56;;;6.51;92.54
20987;BME280;10652;50.306;8.570;2023-03-25T02:03:29;96933.34;;;6.55;92.20
20987;BME280;10652;50.306;8.570;2023-03-25T02:07:34;96940.88;;;6.61;91.87
20987;BME280;10652;50.306;8.570;2023-03-25T02:11:39;96942.25;;;6.68;91.49
20987;BME280;10652;50.306;8.570;2023-03-25T02:15:51;96941.97;;;6.74;91.82
20987;BME280;10652;50.306;8.570;2023-03-25T02:24:38;96943.50;;;6.78;94.30
20987;BME280;10652;50.306;8.570;2023-03-25T02:29:05;96929.53;;;6.79;94.36
20987;BME280;10652;50.306;8.570;2023-03-25T02:42:26;96915.97;;;6.90;99.73
20987;BME280;10652;50.306;8.570;2023-03-25T02:46:27;96913.44;;;7.38;97.91
20987;BME280;10652;50.306;8.570;2023-03-25T02:50:38;96919.31;;;7.26;94.80
20987;BME280;10652;50.306;8.570;2023-03-25T02:54:42;96900.88;;;7.12;92.92
20987;BME280;10652;50.306;8.570;2023-03-25T02:58:46;96918.69;;;7.04;93.31
20987;BME280;10652;50.306;8.570;2023-03-25T03:07:04;96905.19;;;6.96;92.75
20987;BME280;10652;50.306;8.570;2023-03-25T03:11:34;96908.81;;;6.93;92.14
20987;BME280;10652;50.306;8.570;2023-03-25T03:15:55;96899.44;;;6.89;91.86
20987;BME280;10652;50.306;8.570;2023-03-25T03:20:08;96917.78;;;6.88;91.81
20987;BME280;10652;50.306;8.570;2023-03-25T03:24:23;96916.72;;;6.92;91.91
20987;BME280;10652;50.306;8.570;2023-03-25T03:33:20;96923.69;;;6.91;91.73
20987;BME280;10652;50.306;8.570;2023-03-25T03:37:33;96922.78;;;6.92;91.25
20987;BME280;10652;50.306;8.570;2023-03-25T03:41:40;96926.16;;;6.95;91.24
20987;BME280;10652;50.306;8.570;2023-03-25T03:45:51;96936.50;;;6.96;91.31
20987;BME280;10652;50.306;8.570;2023-03-25T03:50:02;96935.53;;;6.99;91.93
20987;BME280;10652;50.306;8.570;2023-03-25T03:54:12;96939.91;;;6.98;92.58
20987;BME280;10652;50.306;8.570;2023-03-25T03:58:19;96948.72;;;6.96;93.15
20987;BME280;10652;50.306;8.570;2023-03-25T04:02:40;96951.19;;;6.99;93.63
20987;BME280;10652;50.306;8.570;2023-03-25T04:06:50;96955.47;;;7.00;94.09
20987;BME280;10652;50.306;8.570;2023-03-25T04:11:10;96957.28;;;6.99;93.93
20987;BME280;10652;50.306;8.570;2023-03-25T04:15:15;96964.31;;;6.97;94.27
20987;BME280;10652;50.306;8.570;2023-03-25T04:19:18;96965.00;;;7.01;96.01
20987;BME280;10652;50.306;8.570;2023-03-25T04:23:20;96968.84;;;6.93;95.68
20987;BME280;10652;50.306;8.570;2023-03-25T04:27:22;96973.53;;;6.87;95.88
20987;BME280;10652;50.306;8.570;2023-03-25T04:31:24;96972.84;;;6.83;94.75
20987;BME280;10652;50.306;8.570;2023-03-25T04:35:31;96973.84;;;6.81;94.54
20987;BME280;10652;50.306;8.570;2023-03-25T04:39:34;96972.22;;;6.78;94.67
20987;BME280;10652;50.306;8.570;2023-03-25T04:43:36;96973.91;;;6.79;94.44
20987;BME280;10652;50.306;8.570;2023-03-25T04:47:40;96977.13;;;6.84;93.68
20987;BME280;10652;50.306;8.570;2023-03-25T04:51:47;96975.44;;;6.83;92.93
20987;BME280;10652;50.306;8.570;2023-03-25T04:55:52;96966.00;;;6.81;92.14
20987;BME280;10652;50.306;8.570;2023-03-25T04:59:54;96974.19;;;6.73;91.66
20987;BME280;10652;50.306;8.570;2023-03-25T05:04:02;96978.66;;;6.71;91.46
20987;BME280;10652;50.306;8.570;2023-03-25T05:08:06;96972.38;;;6.75;91.41
20987;BME280;10652;50.306;8.570;2023-03-25T05:12:08;96972.44;;;6.74;90.28
20987;BME280;10652;50.306;8.570;2023-03-25T05:16:12;96966.38;;;6.73;88.94
20987;BME280;10652;50.306;8.570;2023-03-25T05:20:14;96975.97;;;6.73;87.26
20987;BME280;10652;50.306;8.570;2023-03-25T05:24:17;96972.72;;;6.68;86.53
20987;BME280;10652;50.306;8.570;2023-03-25T05:28:20;96981.72;;;6.62;86.62
20987;BME280;10652;50.306;8.570;2023-03-25T05:32:22;96985.88;;;6.66;86.89
20987;BME280;10652;50.306;8.570;2023-03-25T05:36:25;96984.94;;;6.67;86.93
20987;BME280;10652;50.306;8.570;2023-03-25T05:40:27;96988.53;;;6.65;85.95
20987;BME280;10652;50.306;8.570;2023-03-25T05:44:29;96993.06;;;6.61;85.82
20987;BME280;10652;50.306;8.570;2023-03-25T05:48:31;97015.63;;;6.62;86.61
20987;BME280;10652;50.306;8.570;2023-03-25T05:52:34;97003.34;;;6.64;86.98
20987;BME280;10652;50.306;8.570;2023-03-25T05:56:37;97011.34;;;6.61;86.07
20987;BME280;10652;50.306;8.570;2023-03-25T06:00:40;97010.47;;;6.61;86.61
20987;BME280;10652;50.306;8.570;2023-03-25T06:04:43;97014.69;;;6.63;86.47
20987;BME280;10652;50.306;8.570;2023-03-25T06:08:48;97021.63;;;6.64;85.93
20987;BME280;10652;50.306;8.570;2023-03-25T06:12:52;97017.94;;;6.68;85.97
20987;BME280;10652;50.306;8.570;2023-03-25T06:16:55;97020.25;;;6.74;85.33
20987;BME280;10652;50.306;8.570;2023-03-25T06:20:57;97016.81;;;6.74;85.61
20987;BME280;10652;50.306;8.570;2023-03-25T06:24:59;97026.84;;;6.81;85.23
20987;BME280;10652;50.306;8.570;2023-03-25T06:29:04;97023.69;;;6.93;84.70
20987;BME280;10652;50.306;8.570;2023-03-25T06:33:06;97015.38;;;7.20;84.84
20987;BME280;10652;50.306;8.570;2023-03-25T06:37:11;97034.75;;;7.33;83.68
20987;BME280;10652;50.306;8.570;2023-03-25T06:41:14;97033.56;;;7.73;82.06
20987;BME280;10652;50.306;8.570;2023-03-25T06:45:18;97033.66;;;7.54;80.58
20987;BME280;10652;50.306;8.570;2023-03-25T06:49:35;97034.13;;;7.45;81.22
20987;BME280;10652;50.306;8.570;2023-03-25T06:53:38;97032.59;;;7.41;81.69
20987;BME280;10652;50.306;8.570;2023-03-25T06:57:40;97031.34;;;7.65;81.83
20987;BME280;10652;50.306;8.570;2023-03-25T07:01:42;97034.47;;;8.05;80.28
20987;BME280;10652;50.306;8.570;2023-03-25T07:05:46;97039.72;;;8.22;77.45
20987;BME280;10652;50.306;8.570;2023-03-25T07:09:51;97041.09;;;8.12;76.99
20987;BME280;10652;50.306;8.570;2023-03-25T07:13:55;97031.25;;;8.00;76.33
20987;BME280;10652;50.306;8.570;2023-03-25T07:17:59;97042.78;;;8.13;76.80
20987;BME280;10652;50.306;8.570;2023-03-25T07:22:01;97044.34;;;8.00;75.49
20987;BME280;10652;50.306;8.570;2023-03-25T07:26:03;97037.31;;;7.85;77.01
20987;BME280;10652;50.306;8.570;2023-03-25T07:30:07;97024.50;;;7.96;77.39
20987;BME280;10652;50.306;8.570;2023-03-25T07:34:09;97033.81;;;8.01;77.03
20987;BME280;10652;50.306;8.570;2023-03-25T07:38:11;97038.19;;;8.01;77.68
20987;BME280;10652;50.306;8.570;2023-03-25T07:42:13;97030.28;;;8.02;76.72
20987;BME280;10652;50.306;8.570;2023-03-25T07:46:36;97028.75;;;8.14;76.73
20987;BME280;10652;50.306;8.570;2023-03-25T07:50:39;97025.72;;;8.06;79.51
20987;BME280;10652;50.306;8.570;2023-03-25T07:54:41;97026.56;;;8.70;87.71
20987;BME280;10652;50.306;8.570;2023-03-25T07:58:44;97019.63;;;9.15;80.59
20987;BME280;10652;50.306;8.570;2023-03-25T08:02:47;97031.44;;;9.22;74.68
20987;BME280;10652;50.306;8.570;2023-03-25T08:06:49;97034.88;;;8.93;72.74
20987;BME280;10652;50.306;8.570;2023-03-25T08:10:51;97023.22;;;8.83;72.64
20987;BME280;10652;50.306;8.570;2023-03-25T08:14:54;97020.44;;;8.86;71.88
20987;BME280;10652;50.306;8.570;2023-03-25T08:18:56;97028.66;;;8.80;71.21
20987;BME280;10652;50.306;8.570;2023-03-25T08:22:58;97024.75;;;8.87;71.03
20987;BME280;10652;50.306;8.570;2023-03-25T08:27:01;97007.59;;;8.97;71.11
20987;BME280;10652;50.306;8.570;2023-03-25T08:31:17;97017.72;;;9.03;70.67
20987;BME280;10652;50.306;8.570;2023-03-25T08:35:22;97019.31;;;9.05;70.17
20987;BME280;10652;50.306;8.570;2023-03-25T08:39:27;97008.47;;;9.11;69.76
20987;BME280;10652;50.306;8.570;2023-03-25T08:43:30;97004.13;;;9.26;70.64
20987;BME280;10652;50.306;8.570;2023-03-25T08:47:32;97006.09;;;9.37;69.86
20987;BME280;10652;50.306;8.570;2023-03-25T08:51:34;96992.00;;;9.39;68.02
20987;BME280;10652;50.306;8.570;2023-03-25T08:55:36;96992.16;;;9.36;67.79
20987;BME280;10652;50.306;8.570;2023-03-25T08:59:38;97010.31;;;9.25;66.96
20987;BME280;10652;50.306;8.570;2023-03-25T09:03:42;97007.81;;;9.08;70.74
20987;BME280;10652;50.306;8.570;2023-03-25T09:07:44;96996.25;;;8.96;74.45
20987;BME280;10652;50.306;8.570;2023-03-25T09:11:46;96990.50;;;9.05;75.68
20987;BME280;10652;50.306;8.570;2023-03-25T09:15:48;97004.34;;;9.37;77.31
20987;BME280;10652;50.306;8.570;2023-03-25T09:19:51;96997.81;;;9.58;76.62
20987;BME280;10652;50.306;8.570;2023-03-25T09:23:55;97018.25;;;9.24;75.76
20987;BME280;10652;50.306;8.570;2023-03-25T09:27:57;97157.22;;;8.91;77.63
20987;BME280;10652;50.306;8.570;2023-03-25T09:31:59;97129.34;;;8.08;72.84
20987;BME280;10652;50.306;8.570;2023-03-25T09:36:02;97125.72;;;7.25;75.76
20987;BME280;10652;50.306;8.570;2023-03-25T09:40:05;97137.97;;;6.68;78.93
20987;BME280;10652;50.306;8.570;2023-03-25T09:44:19;97110.84;;;6.15;83.34
20987;BME280;10652;50.306;8.570;2023-03-25T09:52:46;97083.22;;;5.90;85.69
20987;BME280;10652;50.306;8.570;2023-03-25T09:56:52;97071.06;;;6.10;85.90
20987;BME280;10652;50.306;8.570;2023-03-25T10:14:36;97055.03;;;7.11;84.42
20987;BME280;10652;50.306;8.570;2023-03-25T10:18:48;97047.34;;;7.42;84.51
20987;BME280;10652;50.306;8.570;2023-03-25T10:27:35;97036.09;;;7.74;84.35
20987;BME280;10652;50.306;8.570;2023-03-25T10:31:45;97044.75;;;7.92;85.13
20987;BME280;10652;50.306;8.570;2023-03-25T10:35:50;97044.50;;;7.97;82.66
20987;BME280;10652;50.306;8.570;2023-03-25T10:39:53;97051.34;;;8.16;83.48
20987;BME280;10652;50.306;8.570;2023-03-25T10:43:59;97046.63;;;8.39;81.79
20987;BME280;10652;50.306;8.570;2023-03-25T10:48:11;97062.00;;;8.60;81.98
20987;BME280;10652;50.306;8.570;2023-03-25T10:52:15;97058.38;;;8.79;79.50
20987;BME280;10652;50.306;8.570;2023-03-25T10:56:22;97053.16;;;8.94;79.39
20987;BME280;10652;50.306;8.570;2023-03-25T11:00:25;97053.69;;;9.15;76.37
20987;BME280;10652;50.306;8.570;2023-03-25T11:04:33;97054.00;;;9.54;75.73
20987;BME280;10652;50.306;8.570;2023-03-25T11:09:16;97066.28;;;10.12;69.85
20987;BME280;10652;50.306;8.570;2023-03-25T11:13:23;97055.13;;;10.37;66.08
20987;BME280;10652;50.306;8.570;2023-03-25T11:17:26;97053.69;;;10.45;66.72
20987;BME280;10652;50.306;8.570;2023-03-25T11:21:34;97043.63;;;10.80;63.57
20987;BME280;10652;50.306;8.570;2023-03-25T11:25:38;97044.13;;;10.59;58.53
20987;BME280;10652;50.306;8.570;2023-03-25T11:29:52;97051.69;;;10.77;61.82
20987;BME280;10652;50.306;8.570;2023-03-25T11:38:18;97039.31;;;11.06;58.39
20987;BME280;10652;50.306;8.570;2023-03-25T11:42:42;97046.94;;;11.23;57.09
20987;BME280;10652;50.306;8.570;2023-03-25T11:46:53;97048.06;;;11.46;54.10
20987;BME280;10652;50.306;8.570;2023-03-25T11:50:58;97045.03;;;11.52;52.73
20987;BME280;10652;50.306;8.570;2023-03-25T11:55:02;97040.41;;;11.68;52.49
20987;BME280;10652;50.306;8.570;2023-03-25T11:59:17;97038.03;;;12.03;53.81
20987;BME280;10652;50.306;8.570;2023-03-25T12:03:25;97033.38;;;12.19;52.53
20987;BME280;10652;50.306;8.570;2023-03-25T12:07:28;97020.25;;;11.94;52.17
20987;BME280;10652;50.306;8.570;2023-03-25T12:11:40;97028.88;;;11.84;53.40
20987;BME280;10652;50.306;8.570;2023-03-25T12:16:22;97018.44;;;11.82;52.86
20987;BME280;10652;50.306;8.570;2023-03-25T12:25:17;97016.75;;;12.44;52.30
20987;BME280;10652;50.306;8.570;2023-03-25T12:33:53;97014.13;;;11.94;54.28
20987;BME280;10652;50.306;8.570;2023-03-25T12:38:39;97001.59;;;11.72;52.17
20987;BME280;10652;50.306;8.570;2023-03-25T12:43:09;96998.88;;;11.61;52.18
20987;BME280;10652;50.306;8.570;2023-03-25T12:47:29;97008.31;;;11.51;52.82
20987;BME280;10652;50.306;8.570;2023-03-25T12:56:44;96983.69;;;11.52;52.97
20987;BME280;10652;50.306;8.570;2023-03-25T13:00:59;96985.31;;;11.67;52.56
20987;BME280;10652;50.306;8.570;2023-03-25T13:10:21;96987.28;;;11.89;50.54
20987;BME280;10652;50.306;8.570;2023-03-25T13:14:26;96988.22;;;12.00;50.35
20987;BME280;10652;50.306;8.570;2023-03-25T13:18:47;97011.50;;;12.06;48.78
20987;BME280;10652;50.306;8.570;2023-03-25T13:22:54;97025.47;;;11.69;50.51
20987;BME280;10652;50.306;8.570;2023-03-25T13:27:00;97022.22;;;11.53;52.18
20987;BME280;10652;50.306;8.570;2023-03-25T13:31:09;97007.84;;;11.31;53.33
20987;BME280;10652;50.306;8.570;2023-03-25T13:35:23;97005.56;;;11.40;51.81
20987;BME280;10652;50.306;8.570;2023-03-25T13:39:43;96988.09;;;11.39;51.70
20987;BME280;10652;50.306;8.570;2023-03-25T13:43:57;96994.63;;;11.46;51.93
20987;BME280;10652;50.306;8.570;2023-03-25T13:48:10;96996.44;;;11.58;52.23
20987;BME280;10652;50.306;8.570;2023-03-25T13:52:14;97006.22;;;11.56;51.54
20987;BME280;10652;50.306;8.570;2023-03-25T14:01:10;97026.25;;;11.71;53.01
20987;BME280;10652;50.306;8.570;2023-03-25T14:05:41;97036.53;;;11.74;55.62
20987;BME280;10652;50.306;8.570;2023-03-25T14:14:24;97026.69;;;11.38;53.58
20987;BME280;10652;50.306;8.570;2023-03-25T14:18:27;97019.13;;;11.33;53.80
20987;BME280;10652;50.306;8.570;2023-03-25T14:22:37;97012.72;;;11.38;53.41
20987;BME280;10652;50.306;8.570;2023-03-25T14:26:49;97016.09;;;11.52;53.38
20987;BME280;10652;50.306;8.570;2023-03-25T14:31:23;97022.94;;;11.55;52.00
20987;BME280;10652;50.306;8.570;2023-03-25T14:43:44;97007.59;;;12.12;47.60
20987;BME280;10652;50.306;8.570;2023-03-25T14:47:54;97002.66;;;12.07;46.93
20987;BME280;10652;50.306;8.570;2023-03-25T14:51:56;96999.69;;;12.12;46.66
20987;BME280;10652;50.306;8.570;2023-03-25T14:56:00;96994.19;;;12.27;46.82
20987;BME280;10652;50.306;8.570;2023-03-25T15:00:04;96996.09;;;12.13;46.44
20987;BME280;10652;50.306;8.570;2023-03-25T15:04:29;96995.28;;;11.87;47.15
20987;BME280;10652;50.306;8.570;2023-03-25T15:08:35;96991.50;;;11.78;47.45
20987;BME280;10652;50.306;8.570;2023-03-25T15:12:40;96986.66;;;11.85;45.63
20987;BME280;10652;50.306;8.570;2023-03-25T15:20:48;96974.44;;;11.59;44.05
20987;BME280;10652;50.306;8.570;2023-03-25T15:24:54;96969.00;;;11.62;45.23
20987;BME280;10652;50.306;8.570;2023-03-25T15:29:26;96977.50;;;11.65;44.73
20987;BME280;10652;50.306;8.570;2023-03-25T15:52:16;96980.06;;;11.15;45.83
20987;BME280;10652;50.306;8.570;2023-03-25T15:56:28;96981.03;;;11.26;45.56
20987;BME280;10652;50.306;8.570;2023-03-25T16:00:34;96965.38;;;11.25;46.05
20987;BME280;10652;50.306;8.570;2023-03-25T16:04:41;96985.34;;;11.27;45.52
20987;BME280;10652;50.306;8.570;2023-03-25T16:08:45;96963.66;;;11.11;46.03
20987;BME280;10652;50.306;8.570;2023-03-25T16:12:49;96969.47;;;10.89;46.51
20987;BME280;10652;50.306;8.570;2023-03-25T16:16:53;96976.22;;;10.67;46.67
20987;BME280;10652;50.306;8.570;2023-03-25T16:20:59;96982.16;;;10.56;47.20
20987;BME280;10652;50.306;8.570;2023-03-25T16:25:05;96980.88;;;10.49;47.27
20987;BME280;10652;50.306;8.570;2023-03-25T16:29:23;96996.03;;;10.58;47.31
20987;BME280;10652;50.306;8.570;2023-03-25T16:33:38;96983.19;;;10.54;47.67
20987;BME280;10652;50.306;8.570;2023-03-25T16:37:40;96968.03;;;10.44;48.39
20987;BME280;10652;50.306;8.570;2023-03-25T16:41:51;96987.28;;;10.31;47.83
20987;BME280;10652;50.306;8.570;2023-03-25T16:45:56;96995.59;;;10.23;48.77
20987;BME280;10652;50.306;8.570;2023-03-25T16:50:00;97008.16;;;10.18;49.43
20987;BME280;10652;50.306;8.570;2023-03-25T16:54:08;97003.88;;;10.03;49.08
20987;BME280;10652;50.306;8.570;2023-03-25T16:58:23;96989.91;;;9.88;49.82
20987;BME280;10652;50.306;8.570;2023-03-25T17:02:37;97017.84;;;9.75;50.50
20987;BME280;10652;50.306;8.570;2023-03-25T17:06:45;97005.41;;;9.63;51.87
20987;BME280;10652;50.306;8.570;2023-03-25T17:10:56;97019.34;;;9.49;52.93
20987;BME280;10652;50.306;8.570;2023-03-25T17:15:04;97019.06;;;9.40;53.56
20987;BME280;10652;50.306;8.570;2023-03-25T17:19:12;97018.63;;;9.32;54.30
20987;BME280;10652;50.306;8.570;2023-03-25T17:27:33;97014.19;;;9.18;55.15
20987;BME280;10652;50.306;8.570;2023-03-25T17:31:37;97018.13;;;9.11;55.42
20987;BME280;10652;50.306;8.570;2023-03-25T17:35:42;97014.00;;;9.07;55.69
20987;BME280;10652;50.306;8.570;2023-03-25T17:39:46;97036.22;;;9.00;56.22
20987;BME280;10652;50.306;8.570;2023-03-25T17:43:52;97033.19;;;8.92;56.32
20987;BME280;10652;50.306;8.570;2023-03-25T17:47:55;97030.91;;;8.86;56.55
20987;BME280;10652;50.306;8.570;2023-03-25T17:51:57;97049.59;;;8.80;57.14
20987;BME280;10652;50.306;8.570;2023-03-25T17:55:59;97065.81;;;8.70;57.69
20987;BME280;10652;50.306;8.570;2023-03-25T18:00:05;97053.84;;;8.66;57.51
20987;BME280;10652;50.306;8.570;2023-03-25T18:04:10;97068.03;;;8.62;57.19
20987;BME280;10652;50.306;8.570;2023-03-25T18:08:16;97074.31;;;8.58;57.91
20987;BME280;10652;50.306;8.570;2023-03-25T18:12:18;97068.53;;;8.53;57.82
20987;BME280;10652;50.306;8.570;2023-03-25T18:16:21;97087.16;;;8.47;58.37
20987;BME280;10652;50.306;8.570;2023-03-25T18:20:27;97077.03;;;8.41;58.82
20987;BME280;10652;50.306;8.570;2023-03-25T18:24:30;97082.50;;;8.37;59.24
20987;BME280;10652;50.306;8.570;2023-03-25T18:28:32;97081.09;;;8.31;59.89
20987;BME280;10652;50.306;8.570;2023-03-25T18:32:35;97076.09;;;8.27;60.52
20987;BME280;10652;50.306;8.570;2023-03-25T18:36:37;97084.09;;;8.23;60.38
20987;BME280;10652;50.306;8.570;2023-03-25T18:40:39;97092.94;;;8.21;61.02
20987;BME280;10652;50.306;8.570;2023-03-25T18:44:41;97092.28;;;8.17;61.67
20987;BME280;10652;50.306;8.570;2023-03-25T18:48:43;97105.56;;;8.13;61.55
20987;BME280;10652;50.306;8.570;2023-03-25T18:52:46;97089.41;;;8.05;62.24
20987;BME280;10652;50.306;8.570;2023-03-25T18:56:48;97106.19;;;8.01;62.24
20987;BME280;10652;50.306;8.570;2023-03-25T19:00:51;97115.28;;;7.94;62.46
20987;BME280;10652;50.306;8.570;2023-03-25T19:04:54;97117.44;;;7.86;62.94
20987;BME280;10652;50.306;8.570;2023-03-25T19:09:02;97116.06;;;7.78;63.50
20987;BME280;10652;50.306;8.570;2023-03-25T19:13:04;97102.53;;;7.70;64.19
20987;BME280;10652;50.306;8.570;2023-03-25T19:17:06;97113.28;;;7.64;64.50
20987;BME280;10652;50.306;8.570;2023-03-25T19:21:13;97124.81;;;7.60;65.33
20987;BME280;10652;50.306;8.570;2023-03-25T19:25:16;97124.97;;;7.57;66.20
20987;BME280;10652;50.306;8.570;2023-03-25T19:29:19;97126.06;;;7.53;66.67
20987;BME280;10652;50.306;8.570;2023-03-25T19:33:21;97148.72;;;7.53;67.20
20987;BME280;10652;50.306;8.570;2023-03-25T19:37:23;97143.72;;;7.48;68.04
20987;BME280;10652;50.306;8.570;2023-03-25T19:41:27;97148.56;;;7.38;69.04
20987;BME280;10652;50.306;8.570;2023-03-25T19:45:30;97159.28;;;7.32;69.73
20987;BME280;10652;50.306;8.570;2023-03-25T19:49:32;97155.97;;;7.29;71.23
20987;BME280;10652;50.306;8.570;2023-03-25T19:53:41;97160.59;;;7.24;72.08
20987;BME280;10652;50.306;8.570;2023-03-25T19:57:43;97164.25;;;7.20;72.77
20987;BME280;10652;50.306;8.570;2023-03-25T20:01:46;97166.19;;;7.16;73.33
20987;BME280;10652;50.306;8.570;2023-03-25T20:05:55;97165.81;;;7.24;75.68
20987;BME280;10652;50.306;8.570;2023-03-25T20:09:57;97172.88;;;7.22;73.90
20987;BME280;10652;50.306;8.570;2023-03-25T20:14:17;97167.09;;;7.15;74.55
20987;BME280;10652;50.306;8.570;2023-03-25T20:18:19;97181.00;;;7.16;75.10
20987;BME280;10652;50.306;8.570;2023-03-25T20:22:21;97156.06;;;7.09;75.84
20987;BME280;10652;50.306;8.570;2023-03-25T20:26:26;97151.91;;;7.05;76.53
20987;BME280;10652;50.306;8.570;2023-03-25T20:30:28;97163.59;;;6.98;77.25
20987;BME280;10652;50.306;8.570;2023-03-25T20:34:30;97156.94;;;6.90;78.23
20987;BME280;10652;50.306;8.570;2023-03-25T20:38:32;97152.03;;;6.84;78.37
20987;BME280;10652;50.306;8.570;2023-03-25T20:42:34;97150.47;;;6.80;79.48
20987;BME280;10652;50.306;8.570;2023-03-25T20:46:36;97150.59;;;6.77;79.93
20987;BME280;10652;50.306;8.570;2023-03-25T20:50:38;97146.38;;;6.75;80.40
20987;BME280;10652;50.306;8.570;2023-03-25T20:54:41;97148.28;;;6.71;80.37
20987;BME280;10652;50.306;8.570;2023-03-25T20:58:43;97149.16;;;6.72;81.13
20987;BME280;10652;50.306;8.570;2023-03-25T21:02:45;97147.50;;;6.69;81.37
20987;BME280;10652;50.306;8.570;2023-03-25T21:06:49;97164.06;;;6.68;81.48
20987;BME280;10652;50.306;8.570;2023-03-25T21:10:52;97158.09;;;6.66;82.00
20987;BME280;10652;50.306;8.570;2023-03-25T21:14:56;97159.63;;;6.70;82.31
20987;BME280;10652;50.306;8.570;2023-03-25T21:18:58;97169.78;;;6.95;83.91
20987;BME280;10652;50.306;8.570;2023-03-25T21:23:03;97185.66;;;6.90;82.28
20987;BME280;10652;50.306;8.570;2023-03-25T21:27:07;97188.56;;;6.84;82.15
20987;BME280;10652;50.306;8.570;2023-03-25T21:31:12;97193.22;;;6.78;82.51
20987;BME280;10652;50.306;8.570;2023-03-25T21:35:20;97185.69;;;6.72;82.83
20987;BME280;10652;50.306;8.570;2023-03-25T21:39:23;97197.03;;;6.71;83.33
20987;BME280;10652;50.306;8.570;2023-03-25T21:43:25;97191.88;;;6.69;83.63
20987;BME280;10652;50.306;8.570;2023-03-25T21:47:27;97199.97;;;6.63;84.16
20987;BME280;10652;50.306;8.570;2023-03-25T21:51:29;97202.78;;;6.59;85.27
20987;BME280;10652;50.306;8.570;2023-03-25T21:55:32;97199.41;;;6.57;85.32
20987;BME280;10652;50.306;8.570;2023-03-25T21:59:35;97193.41;;;6.55;85.29
20987;BME280;10652;50.306;8.570;2023-03-25T22:03:39;97199.41;;;6.57;85.53
20987;BME280;10652;50.306;8.570;2023-03-25T22:07:46;97195.09;;;6.56;85.49
20987;BME280;10652;50.306;8.570;2023-03-25T22:11:48;97206.31;;;6.58;85.43
20987;BME280;10652;50.306;8.570;2023-03-25T22:15:50;97210.53;;;6.60;85.33
20987;BME280;10652;50.306;8.570;2023-03-25T22:19:52;97218.44;;;6.59;85.32
20987;BME280;10652;50.306;8.570;2023-03-25T22:23:57;97226.19;;;6.60;85.37
20987;BME280;10652;50.306;8.570;2023-03-25T22:27:59;97218.88;;;6.68;85.20
20987;BME280;10652;50.306;8.570;2023-03-25T22:32:01;97220.22;;;6.77;84.88
20987;BME280;10652;50.306;8.570;2023-03-25T22:36:10;97219.91;;;6.84;84.20
20987;BME280;10652;50.306;8.570;2023-03-25T22:40:13;97217.19;;;6.86;83.37
20987;BME280;10652;50.306;8.570;2023-03-25T22:44:16;97229.13;;;6.91;83.09
20987;BME280;10652;50.306;8.570;2023-03-25T22:48:18;97227.31;;;6.93;82.54
20987;BME280;10652;50.306;8.570;2023-03-25T22:52:21;97226.41;;;6.95;81.84
20987;BME280;10652;50.306;8.570;2023-03-25T22:56:23;97224.06;;;6.88;80.34
20987;BME280;10652;50.306;8.570;2023-03-25T23:00:26;97228.63;;;6.83;79.85
20987;BME280;10652;50.306;8.570;2023-03-25T23:04:29;97231.41;;;6.80;79.90
20987;BME280;10652;50.306;8.570;2023-03-25T23:08:33;97222.00;;;6.76;79.60
20987;BME280;10652;50.306;8.570;2023-03-25T23:12:37;97231.72;;;6.73;79.64
20987;BME280;10652;50.306;8.570;2023-03-25T23:16:40;97238.09;;;6.67;79.82
20987;BME280;10652;50.306;8.570;2023-03-25T23:20:47;97228.91;;;6.77;84.07
20987;BME280;10652;50.306;8.570;2023-03-25T23:24:49;97232.50;;;6.75;81.77
20987;BME280;10652;50.306;8.570;2023-03-25T23:28:53;97233.88;;;6.63;81.68
20987;BME280;10652;50.306;8.570;2023-03-25T23:32:55;97235.13;;;6.55;82.13
20987;BME280;10652;50.306;8.570;2023-03-25T23:36:57;97228.56;;;6.46;82.80
20987;BME280;10652;50.306;8.570;2023-03-25T23:41:08;97223.84;;;6.35;83.27
20987;BME280;10652;50.306;8.570;2023-03-25T23:45:10;97222.34;;;6.30;84.17
20987;BME280;10652;50.306;8.570;2023-03-25T23:49:13;97230.19;;;6.28;84.59